createdAt,value
2023-05-08T00:03:49.083Z,101289.59
2023-05-08T00:08:51.000Z,101293.06
2023-05-08T00:13:52.417Z,101304.22
2023-05-08T00:18:54.845Z,101298.63
2023-05-08T00:23:56.284Z,101298.44
2023-05-08T00:28:57.706Z,101292.31
2023-05-08T00:33:59.148Z,101299.72
2023-05-08T00:39:00.633Z,101294.03
2023-05-08T00:44:02.107Z,101297.84
2023-05-08T00:49:05.845Z,101295.22
2023-05-08T00:54:07.376Z,101299.66
2023-05-08T00:59:13.667Z,101299.94
2023-05-08T01:04:15.163Z,101299.94
2023-05-08T01:09:16.585Z,101300.34
2023-05-08T01:14:29.880Z,101301.25
2023-05-08T01:19:43.192Z,101305.88
2023-05-08T01:25:12.482Z,101308.09
2023-05-08T01:30:13.997Z,101303.13
2023-05-08T01:35:29.126Z,101312.75
2023-05-08T01:40:45.965Z,101318.34
2023-05-08T01:45:50.120Z,101316.59
2023-05-08T01:51:00.647Z,101320.47
2023-05-08T01:56:09.574Z,101314.47
2023-05-08T02:01:13.781Z,101315.22
2023-05-08T02:06:17.765Z,101316.34
2023-05-08T02:11:21.655Z,101333.41
2023-05-08T02:16:25.802Z,101330.09
2023-05-08T02:21:28.688Z,101335.50
2023-05-08T02:26:32.033Z,101341.75
2023-05-08T02:31:34.748Z,101340.38
2023-05-08T02:36:38.238Z,101351.94
2023-05-08T02:41:41.158Z,101353.69
2023-05-08T02:47:07.235Z,101355.78
2023-05-08T02:52:14.243Z,101358.00
2023-05-08T02:57:37.616Z,101364.16
2023-05-08T03:02:48.406Z,101363.13
2023-05-08T03:07:52.879Z,101355.69
2023-05-08T03:12:56.832Z,101363.47
2023-05-08T03:18:04.476Z,101361.94
2023-05-08T03:23:09.045Z,101356.81
2023-05-08T03:28:11.539Z,101360.44
2023-05-08T03:33:13.964Z,101357.75
2023-05-08T03:38:16.295Z,101362.28
2023-05-08T03:43:19.413Z,101365.78
2023-05-08T03:48:22.835Z,101364.91
2023-05-08T03:53:24.720Z,101366.44
2023-05-08T03:58:48.635Z,101375.16
2023-05-08T04:03:54.541Z,101378.97
2023-05-08T04:09:08.502Z,101382.09
2023-05-08T04:14:16.291Z,101382.09
2023-05-08T04:19:27.498Z,101390.75
2023-05-08T04:24:30.416Z,101392.34
2023-05-08T04:29:33.359Z,101402.97
2023-05-08T04:34:35.715Z,101403.31
2023-05-08T04:39:37.136Z,101413.06
2023-05-08T04:44:38.581Z,101417.22
2023-05-08T04:49:40.072Z,101429.25
2023-05-08T04:54:42.521Z,101435.38
2023-05-08T04:59:43.965Z,101438.63
2023-05-08T05:04:45.426Z,101444.16
2023-05-08T05:09:46.839Z,101439.88
2023-05-08T05:14:48.298Z,101444.59
2023-05-08T05:19:50.943Z,101445.00
2023-05-08T05:24:53.571Z,101448.53
2023-05-08T05:29:55.024Z,101440.28
2023-05-08T05:34:56.852Z,101445.69
2023-05-08T05:39:58.275Z,101442.00
2023-05-08T05:44:59.720Z,101444.06
2023-05-08T05:50:01.398Z,101457.75
2023-05-08T05:55:03.124Z,101443.50
2023-05-08T06:00:05.949Z,101450.31
2023-05-08T06:05:08.493Z,101453.38
2023-05-08T06:10:10.995Z,101447.59
2023-05-08T06:15:14.786Z,101455.69
2023-05-08T06:20:16.452Z,101460.16
2023-05-08T06:25:17.939Z,101459.13
2023-05-08T06:30:19.515Z,101465.59
2023-05-08T06:35:20.964Z,101464.53
2023-05-08T06:40:23.606Z,101482.72
2023-05-08T06:45:25.149Z,101485.50
2023-05-08T06:50:26.798Z,101485.16
2023-05-08T06:55:28.323Z,101484.09
2023-05-08T07:00:29.778Z,101488.47
2023-05-08T07:05:31.203Z,101490.09
2023-05-08T07:10:32.626Z,101487.59
2023-05-08T07:15:34.133Z,101490.59
2023-05-08T07:20:35.711Z,101502.38
2023-05-08T07:25:37.256Z,101496.28
2023-05-08T07:30:38.669Z,101500.19
2023-05-08T07:35:40.950Z,101507.06
2023-05-08T07:40:42.385Z,101504.63
2023-05-08T07:45:43.827Z,101503.53
2023-05-08T07:50:45.670Z,101493.88
2023-05-08T07:55:47.145Z,101491.25
2023-05-08T08:00:48.583Z,101499.19
2023-05-08T08:05:50.035Z,101483.34
2023-05-08T08:10:51.473Z,101495.34
2023-05-08T08:15:52.990Z,101486.91
2023-05-08T08:20:54.438Z,101490.06
2023-05-08T08:25:55.875Z,101482.34
2023-05-08T08:30:57.424Z,101488.13
2023-05-08T08:35:58.858Z,101477.66
2023-05-08T08:41:00.358Z,101470.84
2023-05-08T08:46:11.738Z,101470.81
2023-05-08T08:51:28.429Z,101466.19
2023-05-08T08:56:31.298Z,101468.63
2023-05-08T09:01:39.675Z,101471.03
2023-05-08T09:06:41.306Z,101470.16
2023-05-08T09:11:46.020Z,101469.94
2023-05-08T09:16:47.618Z,101468.06
2023-05-08T09:21:49.209Z,101468.19
2023-05-08T09:26:50.745Z,101466.59
2023-05-08T09:31:53.196Z,101468.06
2023-05-08T09:37:11.772Z,101472.00
2023-05-08T09:42:13.894Z,101466.69
2023-05-08T09:47:17.381Z,101464.75
2023-05-08T09:52:18.845Z,101467.25
2023-05-08T09:57:20.288Z,101464.50
2023-05-08T10:02:21.807Z,101467.28
2023-05-08T10:07:33.985Z,101465.38
2023-05-08T10:12:37.863Z,101459.94
2023-05-08T10:18:07.050Z,101465.53
2023-05-08T10:23:13.740Z,101456.09
2023-05-08T10:28:29.116Z,101451.25
2023-05-08T10:33:32.028Z,101447.75
2023-05-08T10:38:34.740Z,101449.06
2023-05-08T10:43:41.304Z,101432.47
2023-05-08T10:49:04.822Z,101433.44
2023-05-08T10:54:12.893Z,101437.16
2023-05-08T10:59:21.206Z,101439.47
2023-05-08T11:04:23.879Z,101440.56
2023-05-08T11:09:30.341Z,101434.22
2023-05-08T11:14:33.474Z,101434.25
2023-05-08T11:19:35.946Z,101424.25
2023-05-08T11:24:39.034Z,101430.69
2023-05-08T11:29:40.618Z,101423.34
2023-05-08T11:34:42.180Z,101421.03
2023-05-08T11:39:43.969Z,101416.69
2023-05-08T11:44:45.631Z,101420.69
2023-05-08T11:49:47.204Z,101405.00
2023-05-08T11:54:48.864Z,101407.16
2023-05-08T11:59:51.263Z,101412.31
2023-05-08T12:04:53.118Z,101409.38
2023-05-08T12:09:54.635Z,101402.44
2023-05-08T12:14:56.057Z,101393.28
2023-05-08T12:20:03.946Z,101408.66
2023-05-08T12:25:07.105Z,101394.56
2023-05-08T12:30:11.653Z,101398.09
2023-05-08T12:35:14.071Z,101401.00
2023-05-08T12:40:31.381Z,101406.97
2023-05-08T12:45:35.807Z,101390.13
2023-05-08T12:50:40.135Z,101382.28
2023-05-08T12:55:52.749Z,101377.00
2023-05-08T13:01:07.566Z,101379.00
2023-05-08T13:06:20.875Z,101365.09
2023-05-08T13:11:33.224Z,101356.09
2023-05-08T13:16:45.173Z,101349.66
2023-05-08T13:21:47.786Z,101351.84
2023-05-08T13:26:49.213Z,101354.44
2023-05-08T13:31:50.711Z,101340.72
2023-05-08T13:36:52.519Z,101339.22
2023-05-08T13:41:53.963Z,101330.59
2023-05-08T13:46:55.468Z,101327.00
2023-05-08T13:51:57.312Z,101317.44
2023-05-08T13:56:58.995Z,101317.88
2023-05-08T14:02:00.527Z,101319.44
2023-05-08T14:07:02.136Z,101302.38
2023-05-08T14:12:04.164Z,101313.25
2023-05-08T14:17:06.072Z,101309.81
2023-05-08T14:22:07.554Z,101302.25
2023-05-08T14:27:08.994Z,101302.88
2023-05-08T14:32:11.056Z,101308.31
2023-05-08T14:37:13.091Z,101305.84
2023-05-08T14:42:22.742Z,101307.56
2023-05-08T14:47:24.799Z,101296.81
2023-05-08T14:52:26.322Z,101293.47
2023-05-08T14:57:27.770Z,101302.50
2023-05-08T15:02:29.298Z,101306.31
2023-05-08T15:07:31.015Z,101292.94
2023-05-08T15:12:32.782Z,101306.22
2023-05-08T15:17:37.263Z,101302.63
2023-05-08T15:22:38.833Z,101303.56
2023-05-08T15:27:41.640Z,101297.69
2023-05-08T15:32:43.454Z,101297.56
2023-05-08T15:37:45.032Z,101285.31
2023-05-08T15:42:46.661Z,101274.66
2023-05-08T15:47:48.115Z,101291.13
2023-05-08T15:52:49.824Z,101285.81
2023-05-08T15:57:51.343Z,101287.03
2023-05-08T16:02:52.870Z,101278.72
2023-05-08T16:07:55.604Z,101273.44
2023-05-08T16:12:57.119Z,101275.16
2023-05-08T16:17:59.385Z,101276.53
2023-05-08T16:23:00.829Z,101273.94
2023-05-08T16:28:02.357Z,101267.25
2023-05-08T16:33:04.476Z,101268.75
2023-05-08T16:38:06.404Z,101269.31
2023-05-08T16:43:08.715Z,101264.47
2023-05-08T16:48:10.391Z,101270.47
2023-05-08T16:53:11.838Z,101273.09
2023-05-08T16:58:13.276Z,101275.19
2023-05-08T17:03:14.794Z,101271.59
2023-05-08T17:08:16.484Z,101260.25
2023-05-08T17:13:18.134Z,101262.38
2023-05-08T17:18:19.753Z,101264.66
2023-05-08T17:23:21.183Z,101263.66
2023-05-08T17:28:22.633Z,101282.66
2023-05-08T17:33:24.184Z,101272.78
2023-05-08T17:38:25.683Z,101277.91
2023-05-08T17:43:28.610Z,101285.50
2023-05-08T17:48:30.151Z,101281.47
2023-05-08T17:53:32.355Z,101289.56
2023-05-08T17:58:33.849Z,101297.66
2023-05-08T18:03:36.011Z,101296.34
2023-05-08T18:08:38.720Z,101305.91
2023-05-08T18:13:41.054Z,101305.47
2023-05-08T18:18:42.524Z,101305.72
2023-05-08T18:23:44.327Z,101307.56
2023-05-08T18:28:45.763Z,101309.13
2023-05-08T18:33:47.776Z,101320.94
2023-05-08T18:38:49.196Z,101326.44
2023-05-08T18:43:50.599Z,101335.31
2023-05-08T18:48:52.011Z,101341.78
2023-05-08T18:53:54.046Z,101339.44
2023-05-08T18:58:55.472Z,101345.81
2023-05-08T19:03:57.048Z,101343.84
2023-05-08T19:08:58.509Z,101352.25
2023-05-08T19:13:59.930Z,101355.41
2023-05-08T19:19:01.379Z,101351.00
2023-05-08T19:24:02.964Z,101346.16
2023-05-08T19:29:04.465Z,101360.72
2023-05-08T19:34:05.995Z,101357.22
2023-05-08T19:39:07.595Z,101350.75
2023-05-08T19:44:09.270Z,101353.28
2023-05-08T19:49:11.029Z,101350.56
2023-05-08T19:54:12.442Z,101347.97
2023-05-08T19:59:13.864Z,101350.16
2023-05-08T20:04:15.311Z,101343.72
2023-05-08T20:09:17.152Z,101359.22
2023-05-08T20:14:18.584Z,101348.59
2023-05-08T20:19:20.024Z,101350.06
2023-05-08T20:24:21.460Z,101346.06
2023-05-08T20:29:23.992Z,101351.84
2023-05-08T20:34:25.547Z,101346.22
2023-05-08T20:39:27.372Z,101354.63
2023-05-08T20:44:28.784Z,101350.53
2023-05-08T20:49:30.189Z,101360.16
2023-05-08T20:54:31.766Z,101351.09
2023-05-08T20:59:33.174Z,101356.66
2023-05-08T21:04:34.618Z,101357.00
2023-05-08T21:09:36.051Z,101348.34
2023-05-08T21:14:37.517Z,101346.91
2023-05-08T21:19:39.073Z,101334.72
2023-05-08T21:24:44.352Z,101334.09
2023-05-08T21:29:45.806Z,101333.34
2023-05-08T21:34:47.273Z,101335.44
2023-05-08T21:39:48.689Z,101333.66
2023-05-08T21:44:50.175Z,101333.31
2023-05-08T21:49:51.668Z,101335.41
2023-05-08T21:54:53.174Z,101332.44
2023-05-08T21:59:54.597Z,101320.59
2023-05-08T22:04:56.005Z,101317.97
2023-05-08T22:09:57.428Z,101322.13
2023-05-08T22:14:58.849Z,101315.31
2023-05-08T22:20:00.266Z,101307.00
2023-05-08T22:25:01.906Z,101302.91
2023-05-08T22:30:03.697Z,101313.84
2023-05-08T22:35:06.543Z,101307.53
2023-05-08T22:40:08.539Z,101305.56
2023-05-08T22:45:11.746Z,101295.97
2023-05-08T22:50:13.337Z,101295.66
2023-05-08T22:55:15.754Z,101291.16
2023-05-08T23:00:17.770Z,101293.44
2023-05-08T23:05:19.253Z,101290.69
2023-05-08T23:10:20.752Z,101291.56
2023-05-08T23:15:22.159Z,101286.16
2023-05-08T23:20:23.641Z,101294.63
2023-05-08T23:25:25.259Z,101283.31
2023-05-08T23:30:26.772Z,101284.81
2023-05-08T23:35:28.454Z,101288.31
2023-05-08T23:40:29.877Z,101278.72
2023-05-08T23:45:31.319Z,101274.84
2023-05-08T23:50:33.011Z,101274.28
2023-05-08T23:55:37.840Z,101267.31
